sensor_id;sensor_type;location;lat;lon;timestamp;temperature;humidity
53264;DHT22;39153;52.680;6.172;2023-08-30T00:00:45;14.10;99.90
53264;DHT22;39153;52.680;6.172;2023-08-30T00:03:11;14.00;99.90
53264;DHT22;39153;52.680;6.172;2023-08-30T00:05:41;14.00;99.90
53264;DHT22;39153;52.680;6.172;2023-08-30T00:08:07;14.00;99.90
53264;DHT22;39153;52.680;6.172;2023-08-30T00:10:33;13.90;99.90
53264;DHT22;39153;52.680;6.172;2023-08-30T00:12:58;13.90;99.90
53264;DHT22;39153;52.680;6.172;2023-08-30T00:15:24;14.00;99.90
53264;DHT22;39153;52.680;6.172;2023-08-30T00:17:50;13.90;99.90
53264;DHT22;39153;52.680;6.172;2023-08-30T00:20:18;13.80;99.90
53264;DHT22;39153;52.680;6.172;2023-08-30T00:22:44;13.80;99.90
53264;DHT22;39153;52.680;6.172;2023-08-30T00:25:09;13.80;99.90
53264;DHT22;39153;52.680;6.172;2023-08-30T00:27:35;13.80;99.90
53264;DHT22;39153;52.680;6.172;2023-08-30T00:30:01;13.70;99.90
53264;DHT22;39153;52.680;6.172;2023-08-30T00:32:26;13.70;99.90
53264;DHT22;39153;52.680;6.172;2023-08-30T00:34:52;13.70;99.90
53264;DHT22;39153;52.680;6.172;2023-08-30T00:37:18;13.70;99.90
53264;DHT22;39153;52.680;6.172;2023-08-30T00:39:43;13.70;99.90
53264;DHT22;39153;52.680;6.172;2023-08-30T00:42:09;13.60;99.90
53264;DHT22;39153;52.680;6.172;2023-08-30T00:44:35;13.60;99.90
53264;DHT22;39153;52.680;6.172;2023-08-30T00:47:02;13.60;99.90
53264;DHT22;39153;52.680;6.172;2023-08-30T00:49:29;13.50;99.90
53264;DHT22;39153;52.680;6.172;2023-08-30T00:52:02;13.60;99.90
53264;DHT22;39153;52.680;6.172;2023-08-30T00:54:29;13.50;99.90
53264;DHT22;39153;52.680;6.172;2023-08-30T00:56:55;13.50;99.90
53264;DHT22;39153;52.680;6.172;2023-08-30T00:59:21;13.50;99.90
53264;DHT22;39153;52.680;6.172;2023-08-30T01:01:48;13.50;99.90
53264;DHT22;39153;52.680;6.172;2023-08-30T01:04:14;13.50;99.90
53264;DHT22;39153;52.680;6.172;2023-08-30T01:06:40;13.50;99.90
53264;DHT22;39153;52.680;6.172;2023-08-30T01:09:07;13.60;99.90
53264;DHT22;39153;52.680;6.172;2023-08-30T01:15:09;13.60;99.90
53264;DHT22;39153;52.680;6.172;2023-08-30T01:17:17;13.70;99.90
53264;DHT22;39153;52.680;6.172;2023-08-30T01:22:38;13.70;99.90
53264;DHT22;39153;52.680;6.172;2023-08-30T01:27:41;13.80;99.90
53264;DHT22;39153;52.680;6.172;2023-08-30T01:30:09;13.80;99.90
53264;DHT22;39153;52.680;6.172;2023-08-30T01:32:37;13.80;99.90
53264;DHT22;39153;52.680;6.172;2023-08-30T01:35:04;13.80;99.90
53264;DHT22;39153;52.680;6.172;2023-08-30T01:37:31;13.90;99.90
53264;DHT22;39153;52.680;6.172;2023-08-30T01:39:57;13.90;99.90
53264;DHT22;39153;52.680;6.172;2023-08-30T01:42:25;13.90;99.90
53264;DHT22;39153;52.680;6.172;2023-08-30T01:44:53;14.00;99.90
53264;DHT22;39153;52.680;6.172;2023-08-30T01:47:24;13.90;99.90
53264;DHT22;39153;52.680;6.172;2023-08-30T01:49:52;14.00;99.90
53264;DHT22;39153;52.680;6.172;2023-08-30T01:52:19;13.90;99.90
53264;DHT22;39153;52.680;6.172;2023-08-30T01:54:46;13.90;99.90
53264;DHT22;39153;52.680;6.172;2023-08-30T01:57:13;13.90;99.90
53264;DHT22;39153;52.680;6.172;2023-08-30T01:59:39;13.90;99.90
53264;DHT22;39153;52.680;6.172;2023-08-30T02:02:04;13.80;99.90
53264;DHT22;39153;52.680;6.172;2023-08-30T02:04:30;13.90;99.90
53264;DHT22;39153;52.680;6.172;2023-08-30T02:07:11;13.80;99.90
53264;DHT22;39153;52.680;6.172;2023-08-30T02:09:48;13.80;99.90
53264;DHT22;39153;52.680;6.172;2023-08-30T02:12:16;13.80;99.90
53264;DHT22;39153;52.680;6.172;2023-08-30T02:14:46;13.70;99.90
53264;DHT22;39153;52.680;6.172;2023-08-30T02:17:14;13.60;99.90
53264;DHT22;39153;52.680;6.172;2023-08-30T02:19:42;13.60;99.90
53264;DHT22;39153;52.680;6.172;2023-08-30T02:22:08;13.50;99.90
53264;DHT22;39153;52.680;6.172;2023-08-30T02:24:34;13.40;99.90
53264;DHT22;39153;52.680;6.172;2023-08-30T02:27:00;13.40;99.90
53264;DHT22;39153;52.680;6.172;2023-08-30T02:29:25;13.40;99.90
53264;DHT22;39153;52.680;6.172;2023-08-30T02:31:51;13.40;99.90
53264;DHT22;39153;52.680;6.172;2023-08-30T02:34:17;13.30;99.90
53264;DHT22;39153;52.680;6.172;2023-08-30T02:36:42;13.30;99.90
53264;DHT22;39153;52.680;6.172;2023-08-30T02:39:08;13.30;99.90
53264;DHT22;39153;52.680;6.172;2023-08-30T02:41:34;13.30;99.90
53264;DHT22;39153;52.680;6.172;2023-08-30T02:44:00;13.30;99.90
53264;DHT22;39153;52.680;6.172;2023-08-30T02:46:25;13.30;99.90
53264;DHT22;39153;52.680;6.172;2023-08-30T02:48:51;13.30;99.90
53264;DHT22;39153;52.680;6.172;2023-08-30T02:51:17;13.30;99.90
53264;DHT22;39153;52.680;6.172;2023-08-30T02:53:42;13.30;99.90
53264;DHT22;39153;52.680;6.172;2023-08-30T02:56:08;13.40;99.90
53264;DHT22;39153;52.680;6.172;2023-08-30T02:58:34;13.40;99.90
53264;DHT22;39153;52.680;6.172;2023-08-30T03:01:01;13.30;99.90
53264;DHT22;39153;52.680;6.172;2023-08-30T03:03:28;13.40;99.90
53264;DHT22;39153;52.680;6.172;2023-08-30T03:05:54;13.40;99.90
53264;DHT22;39153;52.680;6.172;2023-08-30T03:08:19;13.30;99.90
53264;DHT22;39153;52.680;6.172;2023-08-30T03:10:45;13.40;99.90
53264;DHT22;39153;52.680;6.172;2023-08-30T03:13:11;13.50;99.90
53264;DHT22;39153;52.680;6.172;2023-08-30T03:15:36;13.50;99.90
53264;DHT22;39153;52.680;6.172;2023-08-30T03:18:02;13.50;99.90
53264;DHT22;39153;52.680;6.172;2023-08-30T03:20:28;13.50;99.90
53264;DHT22;39153;52.680;6.172;2023-08-30T03:22:56;13.50;99.90
53264;DHT22;39153;52.680;6.172;2023-08-30T03:25:23;13.50;99.90
53264;DHT22;39153;52.680;6.172;2023-08-30T03:27:49;13.50;99.90
53264;DHT22;39153;52.680;6.172;2023-08-30T03:30:14;13.50;99.90
53264;DHT22;39153;52.680;6.172;2023-08-30T03:32:40;13.50;99.90
53264;DHT22;39153;52.680;6.172;2023-08-30T03:35:06;13.50;99.90
53264;DHT22;39153;52.680;6.172;2023-08-30T03:37:32;13.60;99.90
53264;DHT22;39153;52.680;6.172;2023-08-30T03:39:58;13.50;99.90
53264;DHT22;39153;52.680;6.172;2023-08-30T03:42:23;13.50;99.90
53264;DHT22;39153;52.680;6.172;2023-08-30T03:44:49;13.60;99.90
53264;DHT22;39153;52.680;6.172;2023-08-30T03:47:15;13.60;99.90
53264;DHT22;39153;52.680;6.172;2023-08-30T03:49:40;13.60;99.90
53264;DHT22;39153;52.680;6.172;2023-08-30T03:52:07;13.60;99.90
53264;DHT22;39153;52.680;6.172;2023-08-30T03:54:33;13.60;99.90
53264;DHT22;39153;52.680;6.172;2023-08-30T03:56:59;13.60;99.90
53264;DHT22;39153;52.680;6.172;2023-08-30T03:59:25;13.60;99.90
53264;DHT22;39153;52.680;6.172;2023-08-30T04:01:52;13.60;99.90
53264;DHT22;39153;52.680;6.172;2023-08-30T04:04:18;13.60;99.90
53264;DHT22;39153;52.680;6.172;2023-08-30T04:06:44;13.60;99.90
53264;DHT22;39153;52.680;6.172;2023-08-30T04:09:10;13.60;99.90
53264;DHT22;39153;52.680;6.172;2023-08-30T04:11:35;13.60;99.90
53264;DHT22;39153;52.680;6.172;2023-08-30T04:14:01;13.70;99.90
53264;DHT22;39153;52.680;6.172;2023-08-30T04:16:27;13.70;99.90
53264;DHT22;39153;52.680;6.172;2023-08-30T04:18:54;13.60;99.90
53264;DHT22;39153;52.680;6.172;2023-08-30T04:21:19;13.60;99.90
53264;DHT22;39153;52.680;6.172;2023-08-30T04:23:45;13.60;99.90
53264;DHT22;39153;52.680;6.172;2023-08-30T04:26:11;13.70;99.90
53264;DHT22;39153;52.680;6.172;2023-08-30T04:28:37;13.70;99.90
53264;DHT22;39153;52.680;6.172;2023-08-30T04:31:02;13.60;99.90
53264;DHT22;39153;52.680;6.172;2023-08-30T04:33:28;13.70;99.90
53264;DHT22;39153;52.680;6.172;2023-08-30T04:35:54;13.70;99.90
53264;DHT22;39153;52.680;6.172;2023-08-30T04:38:20;13.70;99.90
53264;DHT22;39153;52.680;6.172;2023-08-30T04:40:47;13.70;99.90
53264;DHT22;39153;52.680;6.172;2023-08-30T04:43:14;13.60;99.90
53264;DHT22;39153;52.680;6.172;2023-08-30T04:45:40;13.60;99.90
53264;DHT22;39153;52.680;6.172;2023-08-30T04:48:06;13.60;99.90
53264;DHT22;39153;52.680;6.172;2023-08-30T04:50:31;13.60;99.90
53264;DHT22;39153;52.680;6.172;2023-08-30T04:52:57;13.60;99.90
53264;DHT22;39153;52.680;6.172;2023-08-30T04:55:28;13.60;99.90
53264;DHT22;39153;52.680;6.172;2023-08-30T04:57:54;13.60;99.90
53264;DHT22;39153;52.680;6.172;2023-08-30T05:00:20;13.60;99.90
53264;DHT22;39153;52.680;6.172;2023-08-30T05:02:46;13.60;99.90
53264;DHT22;39153;52.680;6.172;2023-08-30T05:05:12;13.60;99.90
53264;DHT22;39153;52.680;6.172;2023-08-30T05:07:38;13.60;99.90
53264;DHT22;39153;52.680;6.172;2023-08-30T05:10:05;13.60;99.90
53264;DHT22;39153;52.680;6.172;2023-08-30T05:12:33;13.60;99.90
53264;DHT22;39153;52.680;6.172;2023-08-30T05:14:59;13.70;99.90
53264;DHT22;39153;52.680;6.172;2023-08-30T05:17:26;13.70;99.90
53264;DHT22;39153;52.680;6.172;2023-08-30T05:19:54;13.60;99.90
53264;DHT22;39153;52.680;6.172;2023-08-30T05:22:19;13.70;99.90
53264;DHT22;39153;52.680;6.172;2023-08-30T05:24:45;13.70;99.90
53264;DHT22;39153;52.680;6.172;2023-08-30T05:27:11;13.70;99.90
53264;DHT22;39153;52.680;6.172;2023-08-30T05:29:38;13.70;99.90
53264;DHT22;39153;52.680;6.172;2023-08-30T05:32:04;13.70;99.90
53264;DHT22;39153;52.680;6.172;2023-08-30T05:34:30;13.70;99.90
53264;DHT22;39153;52.680;6.172;2023-08-30T05:36:56;13.80;99.90
53264;DHT22;39153;52.680;6.172;2023-08-30T05:39:22;13.80;99.90
53264;DHT22;39153;52.680;6.172;2023-08-30T05:41:48;13.80;99.90
53264;DHT22;39153;52.680;6.172;2023-08-30T05:44:13;13.80;99.90
53264;DHT22;39153;52.680;6.172;2023-08-30T05:46:39;13.80;99.90
53264;DHT22;39153;52.680;6.172;2023-08-30T05:49:05;13.90;99.90
53264;DHT22;39153;52.680;6.172;2023-08-30T05:51:30;13.90;99.90
53264;DHT22;39153;52.680;6.172;2023-08-30T05:53:56;14.00;99.90
53264;DHT22;39153;52.680;6.172;2023-08-30T05:56:22;14.00;99.90
53264;DHT22;39153;52.680;6.172;2023-08-30T05:58:48;14.10;99.90
53264;DHT22;39153;52.680;6.172;2023-08-30T06:01:14;14.00;99.90
53264;DHT22;39153;52.680;6.172;2023-08-30T06:03:40;14.10;99.90
53264;DHT22;39153;52.680;6.172;2023-08-30T06:06:06;14.10;99.90
53264;DHT22;39153;52.680;6.172;2023-08-30T06:08:31;14.10;99.90
53264;DHT22;39153;52.680;6.172;2023-08-30T06:10:57;14.20;99.90
53264;DHT22;39153;52.680;6.172;2023-08-30T06:13:23;14.10;99.90
53264;DHT22;39153;52.680;6.172;2023-08-30T06:15:52;14.10;99.90
53264;DHT22;39153;52.680;6.172;2023-08-30T06:18:18;14.10;99.90
53264;DHT22;39153;52.680;6.172;2023-08-30T06:20:44;14.20;99.90
53264;DHT22;39153;52.680;6.172;2023-08-30T06:23:11;14.20;99.90
53264;DHT22;39153;52.680;6.172;2023-08-30T06:25:37;14.20;99.90
53264;DHT22;39153;52.680;6.172;2023-08-30T06:28:02;14.20;99.90
53264;DHT22;39153;52.680;6.172;2023-08-30T06:30:29;14.20;99.90
53264;DHT22;39153;52.680;6.172;2023-08-30T06:32:57;14.20;99.90
53264;DHT22;39153;52.680;6.172;2023-08-30T06:35:23;14.20;99.90
53264;DHT22;39153;52.680;6.172;2023-08-30T06:37:49;14.20;99.90
53264;DHT22;39153;52.680;6.172;2023-08-30T06:40:15;14.20;99.90
53264;DHT22;39153;52.680;6.172;2023-08-30T06:42:41;14.20;99.90
53264;DHT22;39153;52.680;6.172;2023-08-30T06:45:07;14.10;99.90
53264;DHT22;39153;52.680;6.172;2023-08-30T06:47:33;14.10;99.90
53264;DHT22;39153;52.680;6.172;2023-08-30T06:50:01;14.10;99.90
53264;DHT22;39153;52.680;6.172;2023-08-30T06:52:27;14.10;99.90
53264;DHT22;39153;52.680;6.172;2023-08-30T06:54:52;14.20;99.90
53264;DHT22;39153;52.680;6.172;2023-08-30T06:57:18;14.20;99.90
53264;DHT22;39153;52.680;6.172;2023-08-30T06:59:44;14.30;99.90
53264;DHT22;39153;52.680;6.172;2023-08-30T07:02:09;14.40;99.90
53264;DHT22;39153;52.680;6.172;2023-08-30T07:04:35;14.50;99.90
53264;DHT22;39153;52.680;6.172;2023-08-30T07:07:01;14.70;99.90
53264;DHT22;39153;52.680;6.172;2023-08-30T07:09:26;14.80;99.90
53264;DHT22;39153;52.680;6.172;2023-08-30T07:11:57;14.90;99.90
53264;DHT22;39153;52.680;6.172;2023-08-30T07:14:23;15.00;99.90
53264;DHT22;39153;52.680;6.172;2023-08-30T07:16:49;15.10;99.90
53264;DHT22;39153;52.680;6.172;2023-08-30T07:19:16;15.10;99.90
53264;DHT22;39153;52.680;6.172;2023-08-30T07:21:42;15.10;99.90
53264;DHT22;39153;52.680;6.172;2023-08-30T07:24:08;15.10;99.90
53264;DHT22;39153;52.680;6.172;2023-08-30T07:26:35;15.10;99.90
53264;DHT22;39153;52.680;6.172;2023-08-30T07:29:00;15.30;99.90
53264;DHT22;39153;52.680;6.172;2023-08-30T07:31:26;15.00;99.90
53264;DHT22;39153;52.680;6.172;2023-08-30T07:33:52;15.00;99.90
53264;DHT22;39153;52.680;6.172;2023-08-30T07:36:18;14.90;99.90
53264;DHT22;39153;52.680;6.172;2023-08-30T07:38:43;14.90;99.90
53264;DHT22;39153;52.680;6.172;2023-08-30T07:41:09;14.90;99.90
53264;DHT22;39153;52.680;6.172;2023-08-30T07:43:35;14.90;99.90
53264;DHT22;39153;52.680;6.172;2023-08-30T07:46:01;14.90;99.90
53264;DHT22;39153;52.680;6.172;2023-08-30T07:48:27;14.90;99.90
53264;DHT22;39153;52.680;6.172;2023-08-30T07:50:53;14.90;99.90
53264;DHT22;39153;52.680;6.172;2023-08-30T07:53:19;14.90;99.90
53264;DHT22;39153;52.680;6.172;2023-08-30T07:55:48;14.80;99.90
53264;DHT22;39153;52.680;6.172;2023-08-30T07:58:15;14.80;99.90
53264;DHT22;39153;52.680;6.172;2023-08-30T08:00:40;14.80;99.90
53264;DHT22;39153;52.680;6.172;2023-08-30T08:03:06;14.80;99.90
53264;DHT22;39153;52.680;6.172;2023-08-30T08:05:32;14.80;99.90
53264;DHT22;39153;52.680;6.172;2023-08-30T08:08:00;14.80;99.90
53264;DHT22;39153;52.680;6.172;2023-08-30T08:10:26;14.80;99.90
53264;DHT22;39153;52.680;6.172;2023-08-30T08:12:51;14.80;99.90
53264;DHT22;39153;52.680;6.172;2023-08-30T08:15:17;14.80;99.90
53264;DHT22;39153;52.680;6.172;2023-08-30T08:17:43;14.80;99.90
53264;DHT22;39153;52.680;6.172;2023-08-30T08:20:09;14.80;99.90
53264;DHT22;39153;52.680;6.172;2023-08-30T08:22:35;14.70;99.90
53264;DHT22;39153;52.680;6.172;2023-08-30T08:25:00;14.70;99.90
53264;DHT22;39153;52.680;6.172;2023-08-30T08:27:26;14.60;99.90
53264;DHT22;39153;52.680;6.172;2023-08-30T08:29:52;14.60;99.90
53264;DHT22;39153;52.680;6.172;2023-08-30T08:32:17;14.50;99.90
53264;DHT22;39153;52.680;6.172;2023-08-30T08:34:43;14.50;99.90
53264;DHT22;39153;52.680;6.172;2023-08-30T08:37:09;14.50;99.90
53264;DHT22;39153;52.680;6.172;2023-08-30T08:39:34;14.50;99.90
53264;DHT22;39153;52.680;6.172;2023-08-30T08:42:01;14.50;99.90
53264;DHT22;39153;52.680;6.172;2023-08-30T08:44:31;14.50;99.90
53264;DHT22;39153;52.680;6.172;2023-08-30T08:46:58;14.50;99.90
53264;DHT22;39153;52.680;6.172;2023-08-30T08:49:25;14.40;99.90
53264;DHT22;39153;52.680;6.172;2023-08-30T08:51:56;14.30;99.90
53264;DHT22;39153;52.680;6.172;2023-08-30T08:54:21;14.30;99.90
53264;DHT22;39153;52.680;6.172;2023-08-30T08:56:48;14.40;99.90
53264;DHT22;39153;52.680;6.172;2023-08-30T08:59:14;14.30;99.90
53264;DHT22;39153;52.680;6.172;2023-08-30T09:01:40;14.30;99.90
53264;DHT22;39153;52.680;6.172;2023-08-30T09:04:07;14.30;99.90
53264;DHT22;39153;52.680;6.172;2023-08-30T09:06:33;14.30;99.90
53264;DHT22;39153;52.680;6.172;2023-08-30T09:09:00;14.30;99.90
53264;DHT22;39153;52.680;6.172;2023-08-30T09:11:26;14.30;99.90
53264;DHT22;39153;52.680;6.172;2023-08-30T09:13:52;14.30;99.90
53264;DHT22;39153;52.680;6.172;2023-08-30T09:16:18;14.40;99.90
53264;DHT22;39153;52.680;6.172;2023-08-30T09:18:44;14.40;99.90
53264;DHT22;39153;52.680;6.172;2023-08-30T09:21:10;14.50;99.90
53264;DHT22;39153;52.680;6.172;2023-08-30T09:23:36;14.50;99.90
53264;DHT22;39153;52.680;6.172;2023-08-30T09:26:03;14.70;99.90
53264;DHT22;39153;52.680;6.172;2023-08-30T09:28:29;14.70;99.90
53264;DHT22;39153;52.680;6.172;2023-08-30T09:30:58;14.90;99.90
53264;DHT22;39153;52.680;6.172;2023-08-30T09:33:32;14.80;99.90
53264;DHT22;39153;52.680;6.172;2023-08-30T09:35:59;14.90;99.90
53264;DHT22;39153;52.680;6.172;2023-08-30T09:38:25;15.00;99.90
53264;DHT22;39153;52.680;6.172;2023-08-30T09:40:52;15.10;99.90
53264;DHT22;39153;52.680;6.172;2023-08-30T09:43:19;15.10;99.90
53264;DHT22;39153;52.680;6.172;2023-08-30T09:45:47;15.20;99.90
53264;DHT22;39153;52.680;6.172;2023-08-30T09:48:13;15.30;99.90
53264;DHT22;39153;52.680;6.172;2023-08-30T09:50:42;15.30;99.90
53264;DHT22;39153;52.680;6.172;2023-08-30T09:53:11;15.40;99.90
53264;DHT22;39153;52.680;6.172;2023-08-30T09:55:42;15.40;99.90
53264;DHT22;39153;52.680;6.172;2023-08-30T09:58:08;15.40;99.90
53264;DHT22;39153;52.680;6.172;2023-08-30T10:00:35;15.40;99.90
53264;DHT22;39153;52.680;6.172;2023-08-30T10:03:02;15.20;99.90
53264;DHT22;39153;52.680;6.172;2023-08-30T10:05:29;15.10;99.90
53264;DHT22;39153;52.680;6.172;2023-08-30T10:07:56;15.10;99.90
53264;DHT22;39153;52.680;6.172;2023-08-30T10:10:23;15.10;99.90
53264;DHT22;39153;52.680;6.172;2023-08-30T10:12:49;15.00;99.90
53264;DHT22;39153;52.680;6.172;2023-08-30T10:15:16;15.10;99.90
53264;DHT22;39153;52.680;6.172;2023-08-30T10:17:45;15.10;99.90
53264;DHT22;39153;52.680;6.172;2023-08-30T10:20:11;15.00;99.90
53264;DHT22;39153;52.680;6.172;2023-08-30T10:22:38;15.10;99.90
53264;DHT22;39153;52.680;6.172;2023-08-30T10:25:19;15.00;99.90
53264;DHT22;39153;52.680;6.172;2023-08-30T10:27:47;15.00;99.90
53264;DHT22;39153;52.680;6.172;2023-08-30T10:30:14;14.90;99.90
53264;DHT22;39153;52.680;6.172;2023-08-30T10:32:41;14.90;99.90
53264;DHT22;39153;52.680;6.172;2023-08-30T10:35:11;15.00;99.90
53264;DHT22;39153;52.680;6.172;2023-08-30T10:37:37;14.90;99.90
53264;DHT22;39153;52.680;6.172;2023-08-30T10:40:04;14.90;99.90
53264;DHT22;39153;52.680;6.172;2023-08-30T10:42:31;15.00;99.90
53264;DHT22;39153;52.680;6.172;2023-08-30T10:45:07;15.00;99.90
53264;DHT22;39153;52.680;6.172;2023-08-30T10:47:37;15.00;99.90
53264;DHT22;39153;52.680;6.172;2023-08-30T10:50:08;15.00;99.90
53264;DHT22;39153;52.680;6.172;2023-08-30T10:52:34;14.90;99.90
53264;DHT22;39153;52.680;6.172;2023-08-30T10:57:34;14.90;99.90
53264;DHT22;39153;52.680;6.172;2023-08-30T11:00:08;14.90;99.90
53264;DHT22;39153;52.680;6.172;2023-08-30T11:02:38;15.00;99.90
53264;DHT22;39153;52.680;6.172;2023-08-30T11:05:08;15.00;99.90
53264;DHT22;39153;52.680;6.172;2023-08-30T11:07:34;15.00;99.90
53264;DHT22;39153;52.680;6.172;2023-08-30T11:10:00;14.90;99.90
53264;DHT22;39153;52.680;6.172;2023-08-30T11:12:26;14.80;99.90
53264;DHT22;39153;52.680;6.172;2023-08-30T11:14:53;14.80;99.90
53264;DHT22;39153;52.680;6.172;2023-08-30T11:17:19;15.00;99.90
53264;DHT22;39153;52.680;6.172;2023-08-30T11:19:46;14.80;99.90
53264;DHT22;39153;52.680;6.172;2023-08-30T11:22:15;14.90;99.90
53264;DHT22;39153;52.680;6.172;2023-08-30T11:24:42;14.90;99.90
53264;DHT22;39153;52.680;6.172;2023-08-30T11:27:09;15.00;99.90
53264;DHT22;39153;52.680;6.172;2023-08-30T11:29:35;14.80;99.90
53264;DHT22;39153;52.680;6.172;2023-08-30T11:32:01;14.80;99.90
53264;DHT22;39153;52.680;6.172;2023-08-30T11:34:27;15.00;99.90
53264;DHT22;39153;52.680;6.172;2023-08-30T11:36:52;14.90;99.90
53264;DHT22;39153;52.680;6.172;2023-08-30T11:39:19;15.00;99.90
53264;DHT22;39153;52.680;6.172;2023-08-30T11:41:46;15.10;99.90
53264;DHT22;39153;52.680;6.172;2023-08-30T11:44:12;15.00;99.90
53264;DHT22;39153;52.680;6.172;2023-08-30T11:46:37;15.10;99.90
53264;DHT22;39153;52.680;6.172;2023-08-30T11:49:03;15.10;99.90
53264;DHT22;39153;52.680;6.172;2023-08-30T11:51:29;15.10;99.90
53264;DHT22;39153;52.680;6.172;2023-08-30T11:53:56;15.00;99.90
53264;DHT22;39153;52.680;6.172;2023-08-30T11:56:23;15.30;99.90
53264;DHT22;39153;52.680;6.172;2023-08-30T11:58:49;15.10;99.90
53264;DHT22;39153;52.680;6.172;2023-08-30T12:01:18;15.10;99.90
53264;DHT22;39153;52.680;6.172;2023-08-30T12:03:44;15.40;99.90
53264;DHT22;39153;52.680;6.172;2023-08-30T12:06:16;15.30;99.90
53264;DHT22;39153;52.680;6.172;2023-08-30T12:08:42;15.20;99.90
53264;DHT22;39153;52.680;6.172;2023-08-30T12:11:18;15.30;99.90
53264;DHT22;39153;52.680;6.172;2023-08-30T12:13:45;15.50;99.90
53264;DHT22;39153;52.680;6.172;2023-08-30T12:16:16;15.30;99.90
53264;DHT22;39153;52.680;6.172;2023-08-30T12:18:43;15.40;99.90
53264;DHT22;39153;52.680;6.172;2023-08-30T12:21:09;15.30;99.90
53264;DHT22;39153;52.680;6.172;2023-08-30T12:23:35;15.20;99.90
53264;DHT22;39153;52.680;6.172;2023-08-30T12:26:04;15.30;99.90
53264;DHT22;39153;52.680;6.172;2023-08-30T12:28:38;15.40;99.90
53264;DHT22;39153;52.680;6.172;2023-08-30T12:31:04;15.40;99.90
53264;DHT22;39153;52.680;6.172;2023-08-30T12:33:31;15.40;99.90
53264;DHT22;39153;52.680;6.172;2023-08-30T12:35:57;15.60;99.90
53264;DHT22;39153;52.680;6.172;2023-08-30T12:38:24;15.50;99.90
53264;DHT22;39153;52.680;6.172;2023-08-30T12:40:51;15.50;99.90
53264;DHT22;39153;52.680;6.172;2023-08-30T12:43:17;15.60;99.90
53264;DHT22;39153;52.680;6.172;2023-08-30T12:45:44;15.60;99.90
53264;DHT22;39153;52.680;6.172;2023-08-30T12:48:11;15.50;99.90
53264;DHT22;39153;52.680;6.172;2023-08-30T12:50:39;15.60;99.90
53264;DHT22;39153;52.680;6.172;2023-08-30T12:53:06;15.60;99.90
53264;DHT22;39153;52.680;6.172;2023-08-30T12:55:32;15.80;99.90
53264;DHT22;39153;52.680;6.172;2023-08-30T12:57:58;16.00;99.90
53264;DHT22;39153;52.680;6.172;2023-08-30T13:00:24;16.40;99.90
53264;DHT22;39153;52.680;6.172;2023-08-30T13:02:50;16.40;99.90
53264;DHT22;39153;52.680;6.172;2023-08-30T13:05:16;16.50;99.90
53264;DHT22;39153;52.680;6.172;2023-08-30T13:07:42;16.70;99.90
53264;DHT22;39153;52.680;6.172;2023-08-30T13:10:08;16.60;99.90
53264;DHT22;39153;52.680;6.172;2023-08-30T13:12:34;16.80;99.90
53264;DHT22;39153;52.680;6.172;2023-08-30T13:15:00;17.00;99.90
53264;DHT22;39153;52.680;6.172;2023-08-30T13:17:26;17.10;99.90
53264;DHT22;39153;52.680;6.172;2023-08-30T13:19:52;17.10;99.90
53264;DHT22;39153;52.680;6.172;2023-08-30T13:22:18;16.90;99.90
53264;DHT22;39153;52.680;6.172;2023-08-30T13:24:44;16.80;99.90
53264;DHT22;39153;52.680;6.172;2023-08-30T13:27:10;16.90;99.90
53264;DHT22;39153;52.680;6.172;2023-08-30T13:29:36;17.10;99.90
53264;DHT22;39153;52.680;6.172;2023-08-30T13:32:02;17.20;99.90
53264;DHT22;39153;52.680;6.172;2023-08-30T13:34:28;17.80;99.90
53264;DHT22;39153;52.680;6.172;2023-08-30T13:36:56;18.10;99.90
53264;DHT22;39153;52.680;6.172;2023-08-30T13:39:22;18.40;99.90
53264;DHT22;39153;52.680;6.172;2023-08-30T13:41:48;18.60;99.90
53264;DHT22;39153;52.680;6.172;2023-08-30T13:44:14;18.70;99.90
53264;DHT22;39153;52.680;6.172;2023-08-30T13:46:40;18.80;99.90
53264;DHT22;39153;52.680;6.172;2023-08-30T13:49:06;19.00;99.90
53264;DHT22;39153;52.680;6.172;2023-08-30T13:51:32;19.30;99.90
53264;DHT22;39153;52.680;6.172;2023-08-30T13:53:58;19.50;99.90
53264;DHT22;39153;52.680;6.172;2023-08-30T13:56:24;19.70;99.90
53264;DHT22;39153;52.680;6.172;2023-08-30T13:58:50;19.80;99.90
53264;DHT22;39153;52.680;6.172;2023-08-30T14:01:16;19.70;99.90
53264;DHT22;39153;52.680;6.172;2023-08-30T14:03:43;19.70;99.90
53264;DHT22;39153;52.680;6.172;2023-08-30T14:06:08;19.40;99.90
53264;DHT22;39153;52.680;6.172;2023-08-30T14:08:34;19.30;99.90
53264;DHT22;39153;52.680;6.172;2023-08-30T14:11:00;19.40;99.90
53264;DHT22;39153;52.680;6.172;2023-08-30T14:13:26;19.40;99.90
53264;DHT22;39153;52.680;6.172;2023-08-30T14:15:54;19.40;99.90
53264;DHT22;39153;52.680;6.172;2023-08-30T14:18:19;19.70;99.90
53264;DHT22;39153;52.680;6.172;2023-08-30T14:20:45;19.90;99.90
53264;DHT22;39153;52.680;6.172;2023-08-30T14:23:11;20.20;99.90
53264;DHT22;39153;52.680;6.172;2023-08-30T14:25:37;20.40;99.90
53264;DHT22;39153;52.680;6.172;2023-08-30T14:28:03;20.50;99.90
53264;DHT22;39153;52.680;6.172;2023-08-30T14:30:29;20.70;99.90
53264;DHT22;39153;52.680;6.172;2023-08-30T14:32:55;20.90;99.90
53264;DHT22;39153;52.680;6.172;2023-08-30T14:35:21;20.90;99.90
53264;DHT22;39153;52.680;6.172;2023-08-30T14:37:49;20.90;99.90
53264;DHT22;39153;52.680;6.172;2023-08-30T14:40:15;20.60;99.90
53264;DHT22;39153;52.680;6.172;2023-08-30T14:42:42;20.20;99.90
53264;DHT22;39153;52.680;6.172;2023-08-30T14:45:08;19.80;99.90
53264;DHT22;39153;52.680;6.172;2023-08-30T14:47:34;19.50;99.90
53264;DHT22;39153;52.680;6.172;2023-08-30T14:50:00;19.30;99.90
53264;DHT22;39153;52.680;6.172;2023-08-30T14:52:29;19.00;99.90
53264;DHT22;39153;52.680;6.172;2023-08-30T14:54:55;18.80;99.90
53264;DHT22;39153;52.680;6.172;2023-08-30T14:57:21;18.70;99.90
53264;DHT22;39153;52.680;6.172;2023-08-30T14:59:47;18.60;99.90
53264;DHT22;39153;52.680;6.172;2023-08-30T15:02:13;18.50;99.90
53264;DHT22;39153;52.680;6.172;2023-08-30T15:04:40;18.90;99.90
53264;DHT22;39153;52.680;6.172;2023-08-30T15:07:05;19.20;99.90
53264;DHT22;39153;52.680;6.172;2023-08-30T15:09:31;19.30;99.90
53264;DHT22;39153;52.680;6.172;2023-08-30T15:11:57;19.20;99.90
53264;DHT22;39153;52.680;6.172;2023-08-30T15:14:25;19.10;99.90
53264;DHT22;39153;52.680;6.172;2023-08-30T15:16:51;18.80;99.90
53264;DHT22;39153;52.680;6.172;2023-08-30T15:19:17;18.70;99.90
53264;DHT22;39153;52.680;6.172;2023-08-30T15:21:43;18.50;99.90
53264;DHT22;39153;52.680;6.172;2023-08-30T15:24:09;18.40;99.90
53264;DHT22;39153;52.680;6.172;2023-08-30T15:26:35;18.30;99.90
53264;DHT22;39153;52.680;6.172;2023-08-30T15:29:00;18.20;99.90
53264;DHT22;39153;52.680;6.172;2023-08-30T15:31:26;18.00;99.90
53264;DHT22;39153;52.680;6.172;2023-08-30T15:33:52;18.00;99.90
53264;DHT22;39153;52.680;6.172;2023-08-30T15:36:18;18.00;99.90